createdAt,value
2023-12-11T00:00:24.631Z,3.78
2023-12-11T00:03:17.589Z,7.57
2023-12-11T00:05:52.400Z,4.68
2023-12-11T00:08:25.018Z,4.45
2023-12-11T00:10:57.034Z,4.72
2023-12-11T00:13:29.651Z,4.72
2023-12-11T00:16:01.864Z,4.43
2023-12-11T00:18:34.563Z,5.25
2023-12-11T00:21:10.832Z,4.38
2023-12-11T00:23:43.482Z,4.80
2023-12-11T00:26:15.662Z,4.82
2023-12-11T00:28:51.335Z,5.05
2023-12-11T00:31:23.679Z,5.20
2023-12-11T00:33:56.104Z,5.47
2023-12-11T00:36:31.407Z,5.30
2023-12-11T00:39:05.033Z,5.00
2023-12-11T00:41:37.462Z,4.53
2023-12-11T00:44:11.510Z,6.05
2023-12-11T00:46:43.592Z,5.25
2023-12-11T00:49:16.291Z,5.20
2023-12-11T00:51:54.410Z,5.60
2023-12-11T00:54:27.172Z,7.35
2023-12-11T00:56:59.458Z,5.03
2023-12-11T00:59:31.902Z,5.03
2023-12-11T01:02:04.217Z,4.72
2023-12-11T01:04:37.059Z,5.18
2023-12-11T01:07:12.290Z,5.07
2023-12-11T01:09:45.512Z,5.03
2023-12-11T01:12:17.532Z,4.93
2023-12-11T01:14:50.132Z,4.72
2023-12-11T01:17:37.754Z,5.15
2023-12-11T01:20:14.488Z,4.85
2023-12-11T01:22:49.234Z,5.40
2023-12-11T01:25:21.710Z,4.93
2023-12-11T01:27:53.840Z,4.97
2023-12-11T01:30:26.291Z,5.22
2023-12-11T01:32:58.477Z,5.25
2023-12-11T01:35:30.849Z,4.70
2023-12-11T01:38:05.473Z,5.22
2023-12-11T01:40:37.832Z,5.18
2023-12-11T01:43:18.661Z,4.68
2023-12-11T01:46:08.052Z,5.28
2023-12-11T01:48:40.934Z,4.85
2023-12-11T01:51:14.929Z,5.38
2023-12-11T01:53:52.092Z,5.28
2023-12-11T01:56:25.955Z,5.20
2023-12-11T01:59:00.123Z,5.32
2023-12-11T02:01:48.158Z,5.63
2023-12-11T02:04:20.695Z,5.20
2023-12-11T02:06:53.851Z,5.68
2023-12-11T02:09:29.235Z,5.72
2023-12-11T02:12:01.953Z,5.93
2023-12-11T02:14:34.192Z,6.28
2023-12-11T02:17:06.594Z,7.35
2023-12-11T02:19:39.129Z,9.18
2023-12-11T02:22:13.099Z,5.88
2023-12-11T02:24:53.582Z,5.50
2023-12-11T02:27:29.903Z,6.25
2023-12-11T02:30:02.056Z,6.35
2023-12-11T02:32:35.159Z,7.47
2023-12-11T02:35:08.355Z,5.72
2023-12-11T02:37:40.754Z,9.05
2023-12-11T02:40:13.799Z,6.60
2023-12-11T02:42:53.239Z,6.45
2023-12-11T02:45:24.972Z,5.82
2023-12-11T02:48:04.504Z,5.63
2023-12-11T02:50:36.895Z,6.40
2023-12-11T02:53:09.547Z,6.65
2023-12-11T02:55:41.210Z,5.72
2023-12-11T02:58:15.997Z,5.15
2023-12-11T03:00:47.972Z,5.30
2023-12-11T03:03:20.268Z,6.65
2023-12-11T03:05:54.620Z,5.90
2023-12-11T03:08:26.867Z,6.60
2023-12-11T03:10:58.893Z,5.15
2023-12-11T03:13:33.809Z,4.80
2023-12-11T03:16:05.660Z,5.57
2023-12-11T03:18:38.079Z,5.07
2023-12-11T03:21:10.669Z,4.75
2023-12-11T03:23:43.790Z,7.82
2023-12-11T03:26:15.593Z,5.10
2023-12-11T03:28:50.941Z,5.43
2023-12-11T03:31:22.670Z,4.38
2023-12-11T03:33:55.276Z,6.45
2023-12-11T03:36:27.081Z,4.95
2023-12-11T03:38:59.169Z,5.20
2023-12-11T03:41:30.965Z,4.65
2023-12-11T03:44:06.258Z,4.85
2023-12-11T03:46:38.133Z,4.85
2023-12-11T03:49:10.276Z,4.60
2023-12-11T03:51:42.103Z,4.95
2023-12-11T03:54:14.270Z,5.18
2023-12-11T03:56:46.374Z,5.68
2023-12-11T03:59:21.194Z,4.88
2023-12-11T04:01:53.498Z,3.92
2023-12-11T04:04:26.065Z,7.45
2023-12-11T04:06:58.461Z,3.92
2023-12-11T04:09:31.551Z,4.45
2023-12-11T04:12:03.492Z,4.20
2023-12-11T04:14:38.475Z,5.47
2023-12-11T04:17:10.215Z,5.40
2023-12-11T04:19:42.500Z,4.38
2023-12-11T04:22:14.403Z,6.18
2023-12-11T04:24:46.610Z,4.82
2023-12-11T04:27:18.491Z,4.38
2023-12-11T04:29:53.314Z,8.00
2023-12-11T04:32:25.297Z,4.93
2023-12-11T04:34:57.378Z,4.38
2023-12-11T04:37:29.667Z,4.50
2023-12-11T04:40:02.087Z,4.20
2023-12-11T04:42:34.015Z,3.80
2023-12-11T04:45:10.168Z,4.68
2023-12-11T04:47:42.195Z,4.55
2023-12-11T04:50:14.799Z,4.63
2023-12-11T04:52:46.774Z,4.30
2023-12-11T04:55:19.408Z,5.13
2023-12-11T04:57:51.700Z,4.75
2023-12-11T05:00:26.994Z,4.50
2023-12-11T05:02:59.214Z,6.57
2023-12-11T05:05:32.228Z,5.35
2023-12-11T05:08:04.393Z,5.70
2023-12-11T05:10:37.047Z,5.05
2023-12-11T05:13:09.339Z,4.85
2023-12-11T05:15:44.536Z,4.90
2023-12-11T05:18:16.775Z,4.68
2023-12-11T05:20:49.369Z,5.00
2023-12-11T05:23:21.525Z,4.90
2023-12-11T05:25:53.855Z,5.53
2023-12-11T05:28:25.931Z,5.30
2023-12-11T05:31:01.769Z,5.40
2023-12-11T05:33:34.276Z,5.70
2023-12-11T05:36:07.909Z,7.07
2023-12-11T05:38:40.048Z,7.72
2023-12-11T05:41:12.787Z,9.00
2023-12-11T05:43:44.890Z,6.57
2023-12-11T05:46:20.332Z,4.85
2023-12-11T05:48:53.005Z,10.52
2023-12-11T05:51:26.313Z,5.53
2023-12-11T05:53:58.711Z,6.22
2023-12-11T05:56:31.844Z,7.63
2023-12-11T05:59:03.899Z,5.20
2023-12-11T06:01:39.193Z,5.93
2023-12-11T06:04:11.201Z,5.95
2023-12-11T06:06:43.664Z,5.50
2023-12-11T06:09:16.360Z,5.95
2023-12-11T06:11:48.682Z,7.55
2023-12-11T06:14:20.728Z,5.32
2023-12-11T06:16:56.145Z,7.78
2023-12-11T06:19:28.291Z,5.78
2023-12-11T06:22:00.765Z,4.90
2023-12-11T06:24:32.874Z,5.63
2023-12-11T06:27:05.375Z,5.30
2023-12-11T06:29:37.535Z,5.15
2023-12-11T06:32:13.329Z,5.60
2023-12-11T06:34:45.925Z,6.22
2023-12-11T06:37:19.119Z,5.47
2023-12-11T06:39:52.570Z,6.20
2023-12-11T06:42:25.450Z,5.97
2023-12-11T06:44:57.900Z,6.07
2023-12-11T06:47:33.503Z,5.72
2023-12-11T06:50:06.187Z,5.40
2023-12-11T06:52:39.115Z,8.13
2023-12-11T06:55:12.165Z,5.97
2023-12-11T06:57:45.022Z,8.88
2023-12-11T07:00:18.141Z,5.88
2023-12-11T07:02:53.739Z,5.90
2023-12-11T07:05:26.490Z,5.57
2023-12-11T07:07:59.538Z,6.30
2023-12-11T07:10:31.852Z,5.47
2023-12-11T07:13:04.899Z,4.70
2023-12-11T07:15:37.881Z,5.88
2023-12-11T07:18:15.580Z,5.10
2023-12-11T07:20:48.173Z,5.13
2023-12-11T07:23:20.892Z,5.03
2023-12-11T07:25:53.415Z,4.55
2023-12-11T07:28:26.333Z,5.20
2023-12-11T07:31:00.545Z,4.60
2023-12-11T07:33:36.158Z,5.32
2023-12-11T07:36:09.851Z,3.70
2023-12-11T07:38:43.053Z,4.47
2023-12-11T07:41:16.172Z,4.75
2023-12-11T07:43:49.137Z,4.13
2023-12-11T07:46:19.252Z,4.53
2023-12-11T07:48:55.581Z,3.42
2023-12-11T07:51:29.731Z,3.83
2023-12-11T07:54:02.413Z,4.25
2023-12-11T07:56:37.169Z,3.30
2023-12-11T07:59:10.055Z,4.35
2023-12-11T08:01:42.835Z,3.38
2023-12-11T08:04:18.869Z,3.60
2023-12-11T08:06:51.951Z,3.55
2023-12-11T08:09:25.016Z,4.20
2023-12-11T08:11:57.536Z,3.50
2023-12-11T08:14:30.511Z,3.38
2023-12-11T08:17:03.234Z,3.78
2023-12-11T08:19:39.205Z,2.90
2023-12-11T08:22:11.820Z,3.13
2023-12-11T08:24:44.934Z,3.70
2023-12-11T08:27:17.724Z,3.50
2023-12-11T08:29:50.672Z,3.25
2023-12-11T08:32:23.170Z,3.03
2023-12-11T08:35:04.489Z,2.70
2023-12-11T08:37:37.084Z,3.40
2023-12-11T08:40:11.633Z,4.93
2023-12-11T08:42:44.511Z,3.28
2023-12-11T08:45:17.486Z,3.50
2023-12-11T08:47:50.629Z,3.78
2023-12-11T08:50:26.321Z,3.40
2023-12-11T08:52:58.721Z,3.17
2023-12-11T08:55:32.018Z,3.30
2023-12-11T08:58:05.431Z,3.60
2023-12-11T09:00:38.886Z,4.13
2023-12-11T09:03:11.247Z,3.65
2023-12-11T09:05:47.017Z,3.60
2023-12-11T09:08:19.602Z,3.75
2023-12-11T09:10:52.361Z,3.38
2023-12-11T09:13:28.479Z,4.05
2023-12-11T09:16:02.489Z,3.90
2023-12-11T09:18:35.502Z,3.60
2023-12-11T09:21:11.091Z,3.50
2023-12-11T09:23:43.685Z,4.15
2023-12-11T09:26:16.535Z,3.60
2023-12-11T09:28:52.156Z,3.30
2023-12-11T09:31:25.973Z,3.58
2023-12-11T09:33:56.073Z,3.47
2023-12-11T09:36:31.855Z,3.50
2023-12-11T09:39:06.131Z,3.95
2023-12-11T09:41:39.448Z,3.67
2023-12-11T09:44:13.666Z,3.65
2023-12-11T09:46:54.483Z,3.53
2023-12-11T09:49:29.440Z,3.22
2023-12-11T09:52:06.771Z,3.78
2023-12-11T09:54:39.371Z,4.47
2023-12-11T09:57:14.549Z,4.07
2023-12-11T09:59:47.844Z,3.55
2023-12-11T10:02:21.506Z,3.92
2023-12-11T10:05:08.479Z,3.58
2023-12-11T10:07:45.894Z,3.30
2023-12-11T10:10:27.454Z,3.88
2023-12-11T10:13:00.915Z,3.58
2023-12-11T10:15:34.804Z,3.67
2023-12-11T10:18:10.100Z,4.38
2023-12-11T10:20:44.351Z,4.15
2023-12-11T10:23:23.447Z,3.90
2023-12-11T10:25:57.684Z,3.72
2023-12-11T10:28:32.428Z,3.42
2023-12-11T10:31:06.962Z,3.05
2023-12-11T10:33:52.043Z,3.35
2023-12-11T10:36:24.762Z,3.17
2023-12-11T10:39:12.159Z,3.10
2023-12-11T10:41:46.564Z,3.03
2023-12-11T10:44:42.955Z,3.35
2023-12-11T10:47:20.315Z,3.08
2023-12-11T10:49:53.393Z,3.80
2023-12-11T10:52:25.404Z,3.38
2023-12-11T10:55:00.963Z,3.60
2023-12-11T10:57:35.934Z,2.97
2023-12-11T11:00:14.906Z,3.63
2023-12-11T11:02:49.695Z,4.05
2023-12-11T11:05:24.720Z,3.90
2023-12-11T11:08:06.272Z,4.85
2023-12-11T11:10:48.555Z,4.47
2023-12-11T11:13:25.114Z,4.00
2023-12-11T11:15:58.274Z,4.25
2023-12-11T11:18:30.672Z,4.07
2023-12-11T11:21:13.894Z,4.13
2023-12-11T11:23:49.743Z,4.35
2023-12-11T11:26:41.435Z,3.83
2023-12-11T11:29:33.540Z,4.18
2023-12-11T11:32:05.870Z,3.58
2023-12-11T11:34:47.986Z,3.97
2023-12-11T11:37:41.315Z,3.83
2023-12-11T11:40:15.232Z,4.28
2023-12-11T11:42:50.513Z,4.07
2023-12-11T11:45:22.839Z,3.60
2023-12-11T11:47:56.247Z,3.80
2023-12-11T11:50:28.514Z,5.07
2023-12-11T11:53:06.778Z,3.90
2023-12-11T11:55:41.952Z,3.60
2023-12-11T11:58:20.282Z,3.50
2023-12-11T12:00:53.073Z,3.53
2023-12-11T12:03:25.840Z,3.25
2023-12-11T12:05:59.306Z,2.88
2023-12-11T12:08:31.944Z,3.47
2023-12-11T12:11:04.231Z,3.08
2023-12-11T12:13:42.249Z,3.47
2023-12-11T12:16:14.573Z,3.40
2023-12-11T12:18:53.995Z,3.67
2023-12-11T12:21:26.466Z,3.20
2023-12-11T12:24:06.579Z,3.67
2023-12-11T12:26:40.546Z,3.38
2023-12-11T12:29:16.673Z,3.55
2023-12-11T12:31:49.691Z,3.25
2023-12-11T12:34:23.538Z,3.00
2023-12-11T12:36:58.428Z,2.97
2023-12-11T12:39:33.026Z,3.17
2023-12-11T12:42:33.826Z,3.40
2023-12-11T12:45:10.977Z,2.97
2023-12-11T12:47:54.218Z,3.83
2023-12-11T12:50:28.894Z,3.15
2023-12-11T12:53:12.612Z,3.13
2023-12-11T12:55:46.398Z,3.15
2023-12-11T12:58:18.982Z,3.72
2023-12-11T13:00:59.564Z,2.97
2023-12-11T13:03:32.768Z,3.70
2023-12-11T13:06:06.548Z,3.42
2023-12-11T13:08:59.227Z,3.58
2023-12-11T13:11:47.010Z,3.22
2023-12-11T13:14:20.585Z,3.28
2023-12-11T13:16:56.968Z,3.13
2023-12-11T13:19:29.450Z,3.78
2023-12-11T13:22:01.979Z,3.10
2023-12-11T13:24:33.983Z,3.97
2023-12-11T13:27:23.178Z,3.70
2023-12-11T13:30:11.595Z,3.63
2023-12-11T13:33:01.680Z,3.83
2023-12-11T13:35:36.551Z,3.10
2023-12-11T13:38:15.332Z,3.60
2023-12-11T13:40:54.666Z,3.40
2023-12-11T13:43:32.546Z,3.60
2023-12-11T13:46:12.664Z,3.38
2023-12-11T13:48:56.107Z,3.47
2023-12-11T13:51:34.106Z,3.20
2023-12-11T13:57:39.636Z,4.60
2023-12-11T14:00:17.588Z,3.65
2023-12-11T14:03:00.857Z,3.80
2023-12-11T14:05:39.974Z,4.03
2023-12-11T14:08:16.196Z,4.03
2023-12-11T14:10:48.978Z,4.10
2023-12-11T14:13:21.903Z,4.38
2023-12-11T14:15:56.855Z,3.85
2023-12-11T14:18:32.282Z,3.80
2023-12-11T14:21:07.875Z,4.00
2023-12-11T14:23:41.866Z,4.03
2023-12-11T14:26:17.748Z,4.15
2023-12-11T14:28:49.161Z,4.53
2023-12-11T14:31:24.036Z,4.53
2023-12-11T14:34:02.549Z,3.70
2023-12-11T14:36:37.727Z,3.92
2023-12-11T14:39:28.125Z,4.15
2023-12-11T14:42:01.128Z,3.97
2023-12-11T14:44:36.493Z,3.88
2023-12-11T14:47:12.042Z,4.25
2023-12-11T14:49:43.639Z,4.20
2023-12-11T14:52:18.963Z,4.13
2023-12-11T14:54:51.037Z,4.50
2023-12-11T14:57:23.096Z,4.35
2023-12-11T14:59:56.495Z,5.10
2023-12-11T15:02:33.751Z,4.60
2023-12-11T15:05:21.685Z,5.97
2023-12-11T15:08:17.255Z,3.90
2023-12-11T15:10:59.382Z,3.70
2023-12-11T15:13:35.616Z,6.75
2023-12-11T15:16:11.026Z,4.68
2023-12-11T15:18:46.477Z,4.85
2023-12-11T15:21:20.298Z,7.88
2023-12-11T15:23:58.390Z,5.55
2023-12-11T15:26:30.643Z,4.32
2023-12-11T15:29:34.058Z,4.10
2023-12-11T15:32:06.868Z,5.22
2023-12-11T15:34:43.306Z,5.28
2023-12-11T15:37:17.572Z,5.80
2023-12-11T15:39:56.694Z,5.57
2023-12-11T15:42:28.407Z,5.85
2023-12-11T15:45:01.457Z,5.80
2023-12-11T15:47:58.565Z,8.73
2023-12-11T15:50:25.691Z,6.68
2023-12-11T15:52:58.265Z,5.90
2023-12-11T15:55:34.308Z,5.72
2023-12-11T15:58:08.166Z,6.65
2023-12-11T16:00:42.879Z,7.72
2023-12-11T16:03:14.829Z,6.40
2023-12-11T16:05:49.951Z,6.57
2023-12-11T16:08:22.203Z,6.13
2023-12-11T16:10:57.365Z,6.88
2023-12-11T16:13:30.280Z,7.30
2023-12-11T16:16:04.231Z,6.72
2023-12-11T16:18:36.809Z,7.15
2023-12-11T16:21:10.086Z,8.73
2023-12-11T16:23:42.908Z,7.50
2023-12-11T16:26:20.118Z,7.55
2023-12-11T16:28:54.550Z,7.43
2023-12-11T16:31:26.965Z,8.23
2023-12-11T16:34:02.235Z,8.02
2023-12-11T16:36:34.431Z,9.35
2023-12-11T16:39:06.804Z,9.43
2023-12-11T16:41:42.361Z,9.68
2023-12-11T16:44:17.074Z,9.90
2023-12-11T16:46:49.926Z,10.10
2023-12-11T16:49:21.471Z,11.00
2023-12-11T16:51:54.991Z,9.63
2023-12-11T16:54:29.510Z,11.00
2023-12-11T16:57:10.851Z,10.60
2023-12-11T16:59:44.519Z,8.98
2023-12-11T17:02:16.977Z,9.75
2023-12-11T17:04:55.052Z,10.68
2023-12-11T17:07:29.225Z,10.70
2023-12-11T17:10:01.320Z,10.13
2023-12-11T17:12:44.661Z,10.48
2023-12-11T17:15:18.679Z,10.35
2023-12-11T17:17:51.741Z,10.23
2023-12-11T17:20:27.436Z,9.52
2023-12-11T17:23:15.541Z,9.10
2023-12-11T17:26:06.540Z,9.38
2023-12-11T17:28:42.468Z,9.40
2023-12-11T17:31:16.137Z,8.82
2023-12-11T17:33:48.812Z,8.93
2023-12-11T17:36:22.063Z,9.68
2023-12-11T17:38:57.661Z,9.85
2023-12-11T17:41:30.775Z,9.98
2023-12-11T17:44:06.431Z,10.77
2023-12-11T17:46:39.220Z,9.80
2023-12-11T17:49:11.563Z,12.02
2023-12-11T17:51:43.824Z,10.57
2023-12-11T17:54:16.482Z,10.40
2023-12-11T17:56:48.724Z,9.93
2023-12-11T17:59:25.585Z,9.02
2023-12-11T18:02:00.964Z,8.65
2023-12-11T18:04:34.017Z,8.63
2023-12-11T18:07:06.689Z,7.45
2023-12-11T18:09:40.065Z,8.23
2023-12-11T18:12:13.293Z,8.07
2023-12-11T18:14:49.278Z,6.97
2023-12-11T18:17:22.222Z,6.78
2023-12-11T18:19:54.309Z,5.85
2023-12-11T18:26:29.445Z,2.80
2023-12-11T18:31:20.239Z,3.08
2023-12-11T18:33:56.475Z,2.58
2023-12-11T18:36:29.122Z,2.63
2023-12-11T18:39:02.009Z,2.92
2023-12-11T18:41:34.601Z,2.85
2023-12-11T18:44:10.337Z,3.08
2023-12-11T18:46:45.482Z,3.50
2023-12-11T18:49:18.218Z,3.13
2023-12-11T18:51:50.635Z,4.88
2023-12-11T18:54:23.460Z,3.70
2023-12-11T18:56:55.519Z,2.90
2023-12-11T18:59:27.857Z,3.10
2023-12-11T19:02:02.913Z,3.60
2023-12-11T19:04:35.501Z,3.28
2023-12-11T19:07:08.979Z,3.42
2023-12-11T19:09:44.695Z,3.65
2023-12-11T19:12:19.739Z,4.07
2023-12-11T19:14:52.306Z,4.20
2023-12-11T19:17:26.711Z,4.25
2023-12-11T19:19:59.479Z,4.35
2023-12-11T19:22:36.864Z,4.63
2023-12-11T19:25:14.229Z,4.30
2023-12-11T19:27:50.775Z,4.40
2023-12-11T19:30:24.947Z,4.07
2023-12-11T19:33:06.328Z,3.20
2023-12-11T19:35:38.929Z,3.50
2023-12-11T19:38:10.479Z,2.50
2023-12-11T19:40:43.476Z,2.33
2023-12-11T19:43:16.774Z,2.15
2023-12-11T19:45:52.311Z,2.00
2023-12-11T19:48:26.985Z,2.28
2023-12-11T19:51:00.522Z,2.58
2023-12-11T19:53:32.127Z,2.30
2023-12-11T19:56:04.246Z,1.83
2023-12-11T19:58:35.899Z,2.50
2023-12-11T20:01:08.054Z,2.22
2023-12-11T20:03:47.517Z,1.77
2023-12-11T20:06:28.007Z,1.98
2023-12-11T20:09:00.442Z,1.60
2023-12-11T20:11:33.689Z,1.85
2023-12-11T20:14:05.815Z,1.83
2023-12-11T20:16:38.269Z,2.30
2023-12-11T20:19:12.946Z,2.83
2023-12-11T20:21:45.935Z,2.42
2023-12-11T20:24:20.810Z,3.42
2023-12-11T20:26:56.738Z,3.53
2023-12-11T20:29:28.492Z,3.00
2023-12-11T20:32:00.841Z,2.97
2023-12-11T20:34:35.750Z,3.10
2023-12-11T20:37:08.329Z,3.30
2023-12-11T20:39:40.386Z,3.60
2023-12-11T20:42:12.702Z,3.70
2023-12-11T20:44:44.173Z,4.30
2023-12-11T20:47:16.497Z,3.70
2023-12-11T20:49:51.605Z,3.55
2023-12-11T20:52:24.946Z,3.80
2023-12-11T20:54:58.577Z,3.90
2023-12-11T20:57:33.751Z,5.28
2023-12-11T21:00:10.767Z,4.47
2023-12-11T21:02:44.521Z,3.83
2023-12-11T21:05:19.706Z,3.58
2023-12-11T21:07:53.861Z,3.92
2023-12-11T21:10:25.827Z,3.60
2023-12-11T21:12:59.405Z,3.60
2023-12-11T21:15:31.503Z,3.38
2023-12-11T21:18:04.342Z,3.13
2023-12-11T21:20:40.789Z,3.40
2023-12-11T21:23:13.908Z,2.85
2023-12-11T21:25:46.306Z,2.78
2023-12-11T21:28:18.838Z,2.55
2023-12-11T21:30:52.870Z,2.63
2023-12-11T21:33:25.518Z,2.60
2023-12-11T21:36:00.280Z,2.80
2023-12-11T21:38:36.952Z,2.78
2023-12-11T21:41:15.032Z,3.20
2023-12-11T21:43:49.958Z,2.72
2023-12-11T21:46:24.036Z,3.03
2023-12-11T21:48:59.724Z,2.90
2023-12-11T21:51:37.290Z,3.53
2023-12-11T21:54:10.463Z,2.70
2023-12-11T21:56:42.521Z,2.70
2023-12-11T21:59:17.054Z,3.30
2023-12-11T22:01:48.866Z,3.25
2023-12-11T22:04:22.477Z,3.03
2023-12-11T22:06:57.081Z,2.55
2023-12-11T22:09:29.213Z,2.35
2023-12-11T22:12:01.026Z,1.88
